Venezia / Tessera - Marco Polo Airport LIPZ

Flugplatz Daten

Name: Venezia / Tessera - Marco Polo Airport

Ident: LIPZ

Lat: 45,50529861

Long: 12,3519001

Platzhöhe: 7 ft

IataCode: VCE

City: Venezia

Homepage: http://www.veniceairport.com/core/index.jsp?_requestid=37300&language=en

Metar

2021/08/05 14:20
LIPZ 051420Z 16007KT 130V190 9999 FEW070 29/16 Q1005 NOSIG

Taf

2021/08/05 12:21
TAF LIPZ 051100Z 0512/0618 VRB06KT CAVOK
BECMG 0512/0514 14012KT
BECMG 0519/0521 03007KT
TEMPO 0520/0601 4000 TSRA
BECMG 0611/0613 16011KT
Gewünschte Webcam nicht vorhanden? Dann fügen Sie eine hinzu. Sie wird dann so schnell wie möglich freigeschaltet
Url: Title: